sensor_id;sensor_type;location;lat;lon;timestamp;pressure;altitude;pressure_sealevel;temperature;humidity
44131;BME280;29792;48.726;9.248;2024-03-02T00:01:03;95742.25;;;6.16;100.00
44131;BME280;29792;48.726;9.248;2024-03-02T00:03:28;95739.94;;;6.12;100.00
44131;BME280;29792;48.726;9.248;2024-03-02T00:05:54;95744.34;;;6.10;100.00
44131;BME280;29792;48.726;9.248;2024-03-02T00:08:23;95747.16;;;6.07;100.00
44131;BME280;29792;48.726;9.248;2024-03-02T00:10:57;95751.56;;;6.05;100.00
44131;BME280;29792;48.726;9.248;2024-03-02T00:13:22;95750.06;;;6.03;100.00
44131;BME280;29792;48.726;9.248;2024-03-02T00:15:51;95744.44;;;5.99;100.00
44131;BME280;29792;48.726;9.248;2024-03-02T00:18:31;95746.53;;;5.94;100.00
44131;BME280;29792;48.726;9.248;2024-03-02T00:20:57;95748.56;;;5.91;100.00
44131;BME280;29792;48.726;9.248;2024-03-02T00:23:24;95753.16;;;5.86;100.00
44131;BME280;29792;48.726;9.248;2024-03-02T00:25:53;95752.63;;;5.82;100.00
44131;BME280;29792;48.726;9.248;2024-03-02T00:28:23;95747.88;;;5.78;100.00
44131;BME280;29792;48.726;9.248;2024-03-02T00:30:54;95759.13;;;5.75;100.00
44131;BME280;29792;48.726;9.248;2024-03-02T00:33:21;95755.22;;;5.71;100.00
44131;BME280;29792;48.726;9.248;2024-03-02T00:35:47;95752.38;;;5.64;100.00
44131;BME280;29792;48.726;9.248;2024-03-02T00:38:12;95758.50;;;5.62;100.00
44131;BME280;29792;48.726;9.248;2024-03-02T00:40:40;95755.25;;;5.60;100.00
44131;BME280;29792;48.726;9.248;2024-03-02T00:43:05;95758.50;;;5.62;100.00
44131;BME280;29792;48.726;9.248;2024-03-02T00:45:34;95761.72;;;5.64;100.00
44131;BME280;29792;48.726;9.248;2024-03-02T00:47:59;95757.31;;;5.66;100.00
44131;BME280;29792;48.726;9.248;2024-03-02T00:50:25;95752.13;;;5.67;100.00
44131;BME280;29792;48.726;9.248;2024-03-02T00:52:50;95765.38;;;5.71;100.00
44131;BME280;29792;48.726;9.248;2024-03-02T00:55:15;95763.53;;;5.73;100.00
44131;BME280;29792;48.726;9.248;2024-03-02T00:57:41;95744.81;;;5.74;100.00
44131;BME280;29792;48.726;9.248;2024-03-02T01:00:07;95750.81;;;5.73;100.00
44131;BME280;29792;48.726;9.248;2024-03-02T01:02:35;95746.66;;;5.72;100.00
44131;BME280;29792;48.726;9.248;2024-03-02T01:05:00;95744.13;;;5.72;100.00
44131;BME280;29792;48.726;9.248;2024-03-02T01:07:26;95745.72;;;5.73;100.00
44131;BME280;29792;48.726;9.248;2024-03-02T01:09:51;95747.34;;;5.74;100.00
44131;BME280;29792;48.726;9.248;2024-03-02T01:12:16;95754.97;;;5.74;100.00
44131;BME280;29792;48.726;9.248;2024-03-02T01:14:42;95752.44;;;5.74;100.00
44131;BME280;29792;48.726;9.248;2024-03-02T01:17:07;95751.50;;;5.75;100.00
44131;BME280;29792;48.726;9.248;2024-03-02T01:19:32;95747.09;;;5.77;100.00
44131;BME280;29792;48.726;9.248;2024-03-02T01:21:57;95746.97;;;5.79;100.00
44131;BME280;29792;48.726;9.248;2024-03-02T01:24:23;95744.41;;;5.79;100.00
44131;BME280;29792;48.726;9.248;2024-03-02T01:26:48;95743.63;;;5.78;100.00
44131;BME280;29792;48.726;9.248;2024-03-02T01:29:13;95743.75;;;5.76;100.00
44131;BME280;29792;48.726;9.248;2024-03-02T01:31:38;95743.88;;;5.75;100.00
44131;BME280;29792;48.726;9.248;2024-03-02T01:34:07;95739.03;;;5.72;100.00
44131;BME280;29792;48.726;9.248;2024-03-02T01:36:32;95739.28;;;5.69;100.00
44131;BME280;29792;48.726;9.248;2024-03-02T01:38:57;95735.38;;;5.65;100.00
44131;BME280;29792;48.726;9.248;2024-03-02T01:41:22;95743.94;;;5.64;100.00
44131;BME280;29792;48.726;9.248;2024-03-02T01:43:48;95739.25;;;5.59;100.00
44131;BME280;29792;48.726;9.248;2024-03-02T01:46:13;95730.94;;;5.57;100.00
44131;BME280;29792;48.726;9.248;2024-03-02T01:48:38;95738.56;;;5.57;100.00
44131;BME280;29792;48.726;9.248;2024-03-02T01:51:04;95743.75;;;5.56;100.00
44131;BME280;29792;48.726;9.248;2024-03-02T01:53:31;95744.78;;;5.53;100.00
44131;BME280;29792;48.726;9.248;2024-03-02T01:55:56;95737.28;;;5.52;100.00
44131;BME280;29792;48.726;9.248;2024-03-02T01:58:22;95733.16;;;5.51;100.00
44131;BME280;29792;48.726;9.248;2024-03-02T02:00:47;95737.44;;;5.50;100.00
44131;BME280;29792;48.726;9.248;2024-03-02T02:03:13;95734.91;;;5.50;100.00
44131;BME280;29792;48.726;9.248;2024-03-02T02:05:38;95739.16;;;5.50;100.00
44131;BME280;29792;48.726;9.248;2024-03-02T02:08:03;95738.25;;;5.51;100.00
44131;BME280;29792;48.726;9.248;2024-03-02T02:10:29;95735.72;;;5.51;100.00
44131;BME280;29792;48.726;9.248;2024-03-02T02:12:54;95740.78;;;5.51;100.00
44131;BME280;29792;48.726;9.248;2024-03-02T02:17:48;95724.16;;;5.47;100.00
44131;BME280;29792;48.726;9.248;2024-03-02T02:20:14;95732.72;;;5.46;100.00
44131;BME280;29792;48.726;9.248;2024-03-02T02:22:39;95731.91;;;5.45;100.00
44131;BME280;29792;48.726;9.248;2024-03-02T02:25:05;95723.75;;;5.42;100.00
44131;BME280;29792;48.726;9.248;2024-03-02T02:27:30;95722.13;;;5.41;100.00
44131;BME280;29792;48.726;9.248;2024-03-02T02:29:55;95724.66;;;5.41;100.00
44131;BME280;29792;48.726;9.248;2024-03-02T02:32:21;95727.44;;;5.37;100.00
44131;BME280;29792;48.726;9.248;2024-03-02T02:34:46;95722.47;;;5.36;100.00
44131;BME280;29792;48.726;9.248;2024-03-02T02:37:11;95722.63;;;5.34;100.00
44131;BME280;29792;48.726;9.248;2024-03-02T02:39:37;95721.94;;;5.32;100.00
44131;BME280;29792;48.726;9.248;2024-03-02T02:42:02;95715.38;;;5.30;100.00
44131;BME280;29792;48.726;9.248;2024-03-02T02:44:28;95710.41;;;5.28;100.00
44131;BME280;29792;48.726;9.248;2024-03-02T02:46:53;95706.41;;;5.26;100.00
44131;BME280;29792;48.726;9.248;2024-03-02T02:49:18;95709.88;;;5.25;100.00
44131;BME280;29792;48.726;9.248;2024-03-02T02:51:43;95701.66;;;5.21;100.00
44131;BME280;29792;48.726;9.248;2024-03-02T02:54:09;95703.41;;;5.21;100.00
44131;BME280;29792;48.726;9.248;2024-03-02T02:56:34;95707.81;;;5.19;100.00
44131;BME280;29792;48.726;9.248;2024-03-02T02:58:59;95695.47;;;5.14;100.00
44131;BME280;29792;48.726;9.248;2024-03-02T03:01:25;95698.81;;;5.15;100.00
44131;BME280;29792;48.726;9.248;2024-03-02T03:03:50;95698.94;;;5.13;100.00
44131;BME280;29792;48.726;9.248;2024-03-02T03:06:16;95696.66;;;5.10;100.00
44131;BME280;29792;48.726;9.248;2024-03-02T03:08:41;95701.06;;;5.08;100.00
44131;BME280;29792;48.726;9.248;2024-03-02T03:11:06;95699.31;;;5.09;100.00
44131;BME280;29792;48.726;9.248;2024-03-02T03:13:32;95713.75;;;5.08;100.00
44131;BME280;29792;48.726;9.248;2024-03-02T03:15:57;95703.47;;;5.10;100.00
44131;BME280;29792;48.726;9.248;2024-03-02T03:18:22;95716.00;;;5.11;100.00
44131;BME280;29792;48.726;9.248;2024-03-02T03:20:48;95708.28;;;5.13;100.00
44131;BME280;29792;48.726;9.248;2024-03-02T03:23:13;95708.97;;;5.15;100.00
44131;BME280;29792;48.726;9.248;2024-03-02T03:25:41;95712.44;;;5.14;100.00
44131;BME280;29792;48.726;9.248;2024-03-02T03:28:07;95718.69;;;5.10;100.00
44131;BME280;29792;48.726;9.248;2024-03-02T03:30:35;95709.69;;;5.06;100.00
44131;BME280;29792;48.726;9.248;2024-03-02T03:33:00;95709.97;;;5.03;100.00
44131;BME280;29792;48.726;9.248;2024-03-02T03:35:25;95705.22;;;4.98;100.00
44131;BME280;29792;48.726;9.248;2024-03-02T03:37:50;95705.34;;;4.96;100.00
44131;BME280;29792;48.726;9.248;2024-03-02T03:40:16;95710.69;;;4.93;100.00
44131;BME280;29792;48.726;9.248;2024-03-02T03:42:41;95713.34;;;4.92;100.00
44131;BME280;29792;48.726;9.248;2024-03-02T03:45:07;95709.28;;;4.89;100.00
44131;BME280;29792;48.726;9.248;2024-03-02T03:47:32;95706.06;;;4.87;100.00
44131;BME280;29792;48.726;9.248;2024-03-02T03:49:58;95714.06;;;4.83;100.00
44131;BME280;29792;48.726;9.248;2024-03-02T03:52:23;95716.81;;;4.80;100.00
44131;BME280;29792;48.726;9.248;2024-03-02T03:54:48;95712.66;;;4.79;100.00
44131;BME280;29792;48.726;9.248;2024-03-02T03:57:14;95702.88;;;4.74;100.00
44131;BME280;29792;48.726;9.248;2024-03-02T03:59:39;95705.53;;;4.73;100.00
44131;BME280;29792;48.726;9.248;2024-03-02T04:02:04;95705.78;;;4.70;100.00
44131;BME280;29792;48.726;9.248;2024-03-02T04:04:29;95706.13;;;4.65;100.00
44131;BME280;29792;48.726;9.248;2024-03-02T04:06:55;95704.63;;;4.63;100.00
44131;BME280;29792;48.726;9.248;2024-03-02T04:09:20;95700.50;;;4.62;100.00
44131;BME280;29792;48.726;9.248;2024-03-02T04:11:45;95706.50;;;4.60;100.00
44131;BME280;29792;48.726;9.248;2024-03-02T04:14:11;95704.88;;;4.59;100.00
44131;BME280;29792;48.726;9.248;2024-03-02T04:16:37;95719.41;;;4.57;100.00
44131;BME280;29792;48.726;9.248;2024-03-02T04:19:02;95716.19;;;4.55;100.00
44131;BME280;29792;48.726;9.248;2024-03-02T04:21:29;95721.25;;;4.55;100.00
44131;BME280;29792;48.726;9.248;2024-03-02T04:23:54;95718.06;;;4.53;100.00
44131;BME280;29792;48.726;9.248;2024-03-02T04:26:23;95718.97;;;4.52;100.00
44131;BME280;29792;48.726;9.248;2024-03-02T04:28:48;95712.41;;;4.50;100.00
44131;BME280;29792;48.726;9.248;2024-03-02T04:31:15;95712.63;;;4.47;100.00
44131;BME280;29792;48.726;9.248;2024-03-02T04:33:40;95716.22;;;4.44;100.00
44131;BME280;29792;48.726;9.248;2024-03-02T04:36:05;95723.94;;;4.43;100.00
44131;BME280;29792;48.726;9.248;2024-03-02T04:38:33;95713.91;;;4.41;100.00
44131;BME280;29792;48.726;9.248;2024-03-02T04:40:58;95712.41;;;4.39;100.00
44131;BME280;29792;48.726;9.248;2024-03-02T04:43:24;95714.94;;;4.39;100.00
44131;BME280;29792;48.726;9.248;2024-03-02T04:45:49;95725.31;;;4.36;100.00
44131;BME280;29792;48.726;9.248;2024-03-02T04:48:14;95723.72;;;4.35;100.00
44131;BME280;29792;48.726;9.248;2024-03-02T04:50:39;95721.41;;;4.32;100.00
44131;BME280;29792;48.726;9.248;2024-03-02T04:53:05;95719.13;;;4.29;100.00
44131;BME280;29792;48.726;9.248;2024-03-02T04:55:30;95725.91;;;4.28;100.00
44131;BME280;29792;48.726;9.248;2024-03-02T04:58:04;95720.16;;;4.26;100.00
44131;BME280;29792;48.726;9.248;2024-03-02T05:00:30;95716.00;;;4.25;100.00
44131;BME280;29792;48.726;9.248;2024-03-02T05:02:55;95715.28;;;4.23;100.00
44131;BME280;29792;48.726;9.248;2024-03-02T05:05:20;95717.84;;;4.23;100.00
44131;BME280;29792;48.726;9.248;2024-03-02T05:07:46;95713.69;;;4.22;100.00
44131;BME280;29792;48.726;9.248;2024-03-02T05:10:11;95714.75;;;4.19;100.00
44131;BME280;29792;48.726;9.248;2024-03-02T05:12:37;95721.53;;;4.19;100.00
44131;BME280;29792;48.726;9.248;2024-03-02T05:15:13;95719.22;;;4.16;100.00
44131;BME280;29792;48.726;9.248;2024-03-02T05:17:40;95722.81;;;4.13;100.00
44131;BME280;29792;48.726;9.248;2024-03-02T05:20:06;95722.91;;;4.12;100.00
44131;BME280;29792;48.726;9.248;2024-03-02T05:22:35;95722.22;;;4.10;100.00
44131;BME280;29792;48.726;9.248;2024-03-02T05:25:01;95720.59;;;4.09;100.00
44131;BME280;29792;48.726;9.248;2024-03-02T05:27:27;95726.59;;;4.08;100.00
44131;BME280;29792;48.726;9.248;2024-03-02T05:29:52;95724.16;;;4.06;100.00
44131;BME280;29792;48.726;9.248;2024-03-02T05:32:17;95723.59;;;4.03;100.00
44131;BME280;29792;48.726;9.248;2024-03-02T05:34:43;95731.53;;;3.98;100.00
44131;BME280;29792;48.726;9.248;2024-03-02T05:37:08;95725.91;;;3.95;100.00
44131;BME280;29792;48.726;9.248;2024-03-02T05:39:33;95727.03;;;3.91;100.00
44131;BME280;29792;48.726;9.248;2024-03-02T05:41:58;95726.38;;;3.89;100.00
44131;BME280;29792;48.726;9.248;2024-03-02T05:44:24;95730.84;;;3.85;100.00
44131;BME280;29792;48.726;9.248;2024-03-02T05:46:49;95727.72;;;3.81;100.00
44131;BME280;29792;48.726;9.248;2024-03-02T05:49:14;95730.50;;;3.78;100.00
44131;BME280;29792;48.726;9.248;2024-03-02T05:51:39;95736.59;;;3.76;100.00
44131;BME280;29792;48.726;9.248;2024-03-02T05:54:05;95733.34;;;3.74;100.00
44131;BME280;29792;48.726;9.248;2024-03-02T05:56:30;95732.69;;;3.72;100.00
44131;BME280;29792;48.726;9.248;2024-03-02T05:58:55;95723.47;;;3.71;100.00
44131;BME280;29792;48.726;9.248;2024-03-02T06:01:41;95733.59;;;3.71;100.00
44131;BME280;29792;48.726;9.248;2024-03-02T06:04:06;95734.41;;;3.71;100.00
44131;BME280;29792;48.726;9.248;2024-03-02T06:06:32;95739.56;;;3.70;100.00
44131;BME280;29792;48.726;9.248;2024-03-02T06:08:59;95740.50;;;3.69;100.00
44131;BME280;29792;48.726;9.248;2024-03-02T06:11:25;95742.09;;;3.70;100.00
44131;BME280;29792;48.726;9.248;2024-03-02T06:13:50;95749.59;;;3.71;100.00
44131;BME280;29792;48.726;9.248;2024-03-02T06:16:15;95748.78;;;3.71;100.00
44131;BME280;29792;48.726;9.248;2024-03-02T06:18:40;95747.16;;;3.70;100.00
44131;BME280;29792;48.726;9.248;2024-03-02T06:21:06;95741.88;;;3.73;100.00
44131;BME280;29792;48.726;9.248;2024-03-02T06:23:31;95750.06;;;3.76;100.00
44131;BME280;29792;48.726;9.248;2024-03-02T06:25:57;95750.50;;;3.81;100.00
44131;BME280;29792;48.726;9.248;2024-03-02T06:28:22;95747.97;;;3.81;100.00
44131;BME280;29792;48.726;9.248;2024-03-02T06:30:47;95744.31;;;3.86;100.00
44131;BME280;29792;48.726;9.248;2024-03-02T06:33:13;95740.97;;;3.85;100.00
44131;BME280;29792;48.726;9.248;2024-03-02T06:35:38;95747.66;;;3.86;100.00
44131;BME280;29792;48.726;9.248;2024-03-02T06:38:04;95745.81;;;3.88;100.00
44131;BME280;29792;48.726;9.248;2024-03-02T06:40:29;95745.56;;;3.91;100.00
44131;BME280;29792;48.726;9.248;2024-03-02T06:42:54;95750.31;;;3.96;100.00
44131;BME280;29792;48.726;9.248;2024-03-02T06:45:20;95758.38;;;4.01;100.00
44131;BME280;29792;48.726;9.248;2024-03-02T06:47:45;95753.75;;;4.06;100.00
44131;BME280;29792;48.726;9.248;2024-03-02T06:50:11;95765.75;;;4.15;100.00
44131;BME280;29792;48.726;9.248;2024-03-02T06:52:36;95767.03;;;4.20;100.00
44131;BME280;29792;48.726;9.248;2024-03-02T06:55:02;95764.97;;;4.26;100.00
44131;BME280;29792;48.726;9.248;2024-03-02T06:57:29;95767.03;;;4.32;100.00
44131;BME280;29792;48.726;9.248;2024-03-02T06:59:55;95768.31;;;4.37;100.00
44131;BME280;29792;48.726;9.248;2024-03-02T07:02:23;95776.94;;;4.46;100.00
44131;BME280;29792;48.726;9.248;2024-03-02T07:04:50;95772.09;;;4.54;100.00
44131;BME280;29792;48.726;9.248;2024-03-02T07:07:16;95773.34;;;4.59;100.00
44131;BME280;29792;48.726;9.248;2024-03-02T07:09:41;95773.69;;;4.66;100.00
44131;BME280;29792;48.726;9.248;2024-03-02T07:12:07;95775.84;;;4.71;100.00
44131;BME280;29792;48.726;9.248;2024-03-02T07:14:32;95772.19;;;4.75;100.00
44131;BME280;29792;48.726;9.248;2024-03-02T07:17:16;95771.00;;;4.79;100.00
44131;BME280;29792;48.726;9.248;2024-03-02T07:19:41;95771.47;;;4.84;100.00
44131;BME280;29792;48.726;9.248;2024-03-02T07:22:07;95769.16;;;4.92;100.00
44131;BME280;29792;48.726;9.248;2024-03-02T07:24:39;95768.84;;;5.17;100.00
44131;BME280;29792;48.726;9.248;2024-03-02T07:27:04;95763.38;;;5.54;100.00
44131;BME280;29792;48.726;9.248;2024-03-02T07:29:29;95764.78;;;5.99;100.00
44131;BME280;29792;48.726;9.248;2024-03-02T07:31:55;95770.41;;;6.64;100.00
44131;BME280;29792;48.726;9.248;2024-03-02T07:34:20;95773.06;;;7.31;100.00
44131;BME280;29792;48.726;9.248;2024-03-02T07:36:45;95762.44;;;7.74;100.00
44131;BME280;29792;48.726;9.248;2024-03-02T07:39:10;95767.66;;;8.01;100.00
44131;BME280;29792;48.726;9.248;2024-03-02T07:41:36;95768.84;;;8.07;100.00
44131;BME280;29792;48.726;9.248;2024-03-02T07:44:01;95769.25;;;8.02;100.00
44131;BME280;29792;48.726;9.248;2024-03-02T07:46:26;95773.56;;;7.92;100.00
44131;BME280;29792;48.726;9.248;2024-03-02T07:48:52;95767.41;;;7.85;100.00
44131;BME280;29792;48.726;9.248;2024-03-02T07:51:17;95766.88;;;7.82;100.00
44131;BME280;29792;48.726;9.248;2024-03-02T07:53:43;95763.13;;;7.76;100.00
44131;BME280;29792;48.726;9.248;2024-03-02T07:56:08;95772.53;;;7.76;100.00
44131;BME280;29792;48.726;9.248;2024-03-02T07:58:33;95773.59;;;7.73;100.00
44131;BME280;29792;48.726;9.248;2024-03-02T08:01:00;95778.00;;;7.71;100.00
44131;BME280;29792;48.726;9.248;2024-03-02T08:03:26;95775.50;;;7.61;100.00
44131;BME280;29792;48.726;9.248;2024-03-02T08:05:51;95781.25;;;7.54;100.00
44131;BME280;29792;48.726;9.248;2024-03-02T08:08:17;95774.00;;;7.49;100.00
44131;BME280;29792;48.726;9.248;2024-03-02T08:10:42;95771.19;;;7.43;100.00
44131;BME280;29792;48.726;9.248;2024-03-02T08:13:07;95771.56;;;7.38;100.00
44131;BME280;29792;48.726;9.248;2024-03-02T08:15:32;95770.00;;;7.37;100.00
44131;BME280;29792;48.726;9.248;2024-03-02T08:17:59;95768.91;;;7.40;100.00
44131;BME280;29792;48.726;9.248;2024-03-02T08:20:24;95767.84;;;7.42;100.00
44131;BME280;29792;48.726;9.248;2024-03-02T08:22:49;95771.72;;;7.46;100.00
44131;BME280;29792;48.726;9.248;2024-03-02T08:25:15;95759.66;;;7.48;100.00
44131;BME280;29792;48.726;9.248;2024-03-02T08:27:41;95762.88;;;7.50;100.00
44131;BME280;29792;48.726;9.248;2024-03-02T08:30:07;95757.38;;;7.55;100.00
44131;BME280;29792;48.726;9.248;2024-03-02T08:32:35;95762.88;;;7.60;100.00
44131;BME280;29792;48.726;9.248;2024-03-02T08:35:00;95766.22;;;7.70;100.00
44131;BME280;29792;48.726;9.248;2024-03-02T08:37:25;95760.44;;;7.78;100.00
44131;BME280;29792;48.726;9.248;2024-03-02T08:39:51;95767.41;;;7.85;100.00
44131;BME280;29792;48.726;9.248;2024-03-02T08:42:17;95768.72;;;7.89;100.00
44131;BME280;29792;48.726;9.248;2024-03-02T08:44:42;95764.56;;;7.98;100.00
44131;BME280;29792;48.726;9.248;2024-03-02T08:47:08;95766.97;;;8.09;100.00
44131;BME280;29792;48.726;9.248;2024-03-02T08:49:33;95769.44;;;8.28;100.00
44131;BME280;29792;48.726;9.248;2024-03-02T08:51:58;95770.06;;;8.50;100.00
44131;BME280;29792;48.726;9.248;2024-03-02T08:54:24;95764.47;;;8.73;100.00
44131;BME280;29792;48.726;9.248;2024-03-02T09:02:56;95749.69;;;9.12;100.00
44131;BME280;29792;48.726;9.248;2024-03-02T09:05:22;95754.59;;;9.24;100.00
44131;BME280;29792;48.726;9.248;2024-03-02T09:07:47;95757.31;;;9.40;100.00
44131;BME280;29792;48.726;9.248;2024-03-02T09:10:12;95752.03;;;9.59;100.00
44131;BME280;29792;48.726;9.248;2024-03-02T09:12:38;95753.47;;;9.79;100.00
44131;BME280;29792;48.726;9.248;2024-03-02T09:15:03;95756.47;;;10.01;100.00
44131;BME280;29792;48.726;9.248;2024-03-02T09:17:29;95759.50;;;10.22;100.00
44131;BME280;29792;48.726;9.248;2024-03-02T09:19:54;95762.66;;;10.42;100.00
44131;BME280;29792;48.726;9.248;2024-03-02T09:22:20;95759.88;;;10.61;100.00
44131;BME280;29792;48.726;9.248;2024-03-02T09:24:45;95757.06;;;10.80;100.00
44131;BME280;29792;48.726;9.248;2024-03-02T09:27:10;95764.97;;;11.03;100.00
44131;BME280;29792;48.726;9.248;2024-03-02T09:29:35;95755.75;;;11.26;100.00
44131;BME280;29792;48.726;9.248;2024-03-02T09:32:01;95753.03;;;11.44;99.52
44131;BME280;29792;48.726;9.248;2024-03-02T09:34:26;95749.34;;;11.63;97.52
44131;BME280;29792;48.726;9.248;2024-03-02T09:36:51;95748.13;;;11.75;95.76
44131;BME280;29792;48.726;9.248;2024-03-02T09:39:17;95746.34;;;11.83;94.16
44131;BME280;29792;48.726;9.248;2024-03-02T09:41:43;95738.94;;;11.97;93.55
44131;BME280;29792;48.726;9.248;2024-03-02T09:44:09;95742.28;;;12.13;93.06
44131;BME280;29792;48.726;9.248;2024-03-02T09:46:34;95741.59;;;12.28;91.91
44131;BME280;29792;48.726;9.248;2024-03-02T09:49:01;95734.69;;;12.36;90.62
44131;BME280;29792;48.726;9.248;2024-03-02T09:51:27;95734.16;;;12.49;91.28
44131;BME280;29792;48.726;9.248;2024-03-02T09:53:54;95738.09;;;12.68;91.24
44131;BME280;29792;48.726;9.248;2024-03-02T09:56:21;95725.69;;;12.79;89.42
44131;BME280;29792;48.726;9.248;2024-03-02T09:58:47;95734.94;;;12.96;89.08
44131;BME280;29792;48.726;9.248;2024-03-02T10:01:12;95726.00;;;13.15;90.45
44131;BME280;29792;48.726;9.248;2024-03-02T10:03:38;95721.84;;;13.37;89.72
44131;BME280;29792;48.726;9.248;2024-03-02T10:06:23;95718.47;;;13.59;88.85
44131;BME280;29792;48.726;9.248;2024-03-02T10:08:50;95723.41;;;13.84;87.28
44131;BME280;29792;48.726;9.248;2024-03-02T10:11:32;95720.69;;;14.14;87.63
44131;BME280;29792;48.726;9.248;2024-03-02T10:14:12;95722.13;;;14.61;89.65
44131;BME280;29792;48.726;9.248;2024-03-02T10:16:42;95716.28;;;15.24;89.03
44131;BME280;29792;48.726;9.248;2024-03-02T10:19:17;95718.25;;;16.14;84.62
44131;BME280;29792;48.726;9.248;2024-03-02T10:21:47;95715.31;;;17.06;76.09
44131;BME280;29792;48.726;9.248;2024-03-02T10:24:14;95719.59;;;18.25;69.46
44131;BME280;29792;48.726;9.248;2024-03-02T10:26:39;95712.63;;;19.35;61.91
44131;BME280;29792;48.726;9.248;2024-03-02T10:29:05;95720.50;;;20.52;59.72
44131;BME280;29792;48.726;9.248;2024-03-02T10:31:30;95710.50;;;21.76;55.23
44131;BME280;29792;48.726;9.248;2024-03-02T10:33:55;95718.09;;;22.70;49.54
44131;BME280;29792;48.726;9.248;2024-03-02T10:36:22;95710.50;;;23.37;47.60
44131;BME280;29792;48.726;9.248;2024-03-02T10:38:47;95714.69;;;24.17;45.10
44131;BME280;29792;48.726;9.248;2024-03-02T10:41:17;95710.00;;;24.74;43.93
44131;BME280;29792;48.726;9.248;2024-03-02T10:43:43;95712.38;;;25.19;42.13
44131;BME280;29792;48.726;9.248;2024-03-02T10:46:10;95709.84;;;25.56;40.89
44131;BME280;29792;48.726;9.248;2024-03-02T10:48:36;95707.75;;;26.22;40.18
44131;BME280;29792;48.726;9.248;2024-03-02T10:51:04;95698.69;;;26.92;38.87
44131;BME280;29792;48.726;9.248;2024-03-02T10:53:30;95691.44;;;27.29;36.96
44131;BME280;29792;48.726;9.248;2024-03-02T10:55:58;95685.72;;;27.78;36.15
44131;BME280;29792;48.726;9.248;2024-03-02T10:58:31;95686.25;;;28.16;34.63
44131;BME280;29792;48.726;9.248;2024-03-02T11:01:02;95684.84;;;28.48;34.53
44131;BME280;29792;48.726;9.248;2024-03-02T11:03:29;95687.59;;;28.98;33.39
44131;BME280;29792;48.726;9.248;2024-03-02T11:05:59;95682.94;;;29.29;33.71
44131;BME280;29792;48.726;9.248;2024-03-02T11:08:26;95676.19;;;29.56;33.21
44131;BME280;29792;48.726;9.248;2024-03-02T11:11:04;95670.44;;;30.12;32.83
44131;BME280;29792;48.726;9.248;2024-03-02T11:13:32;95667.63;;;30.56;31.68
44131;BME280;29792;48.726;9.248;2024-03-02T11:16:04;95660.66;;;30.84;30.22
44131;BME280;29792;48.726;9.248;2024-03-02T11:18:31;95655.59;;;31.12;30.54
44131;BME280;29792;48.726;9.248;2024-03-02T11:20:58;95653.84;;;31.39;28.76
44131;BME280;29792;48.726;9.248;2024-03-02T11:23:34;95652.19;;;31.62;28.98
44131;BME280;29792;48.726;9.248;2024-03-02T11:26:19;95651.75;;;31.74;27.90
44131;BME280;29792;48.726;9.248;2024-03-02T11:28:45;95652.53;;;31.74;29.12
44131;BME280;29792;48.726;9.248;2024-03-02T11:31:11;95640.03;;;31.61;28.12
44131;BME280;29792;48.726;9.248;2024-03-02T11:33:36;95647.81;;;30.96;26.67
44131;BME280;29792;48.726;9.248;2024-03-02T11:36:01;95633.78;;;29.43;28.64
44131;BME280;29792;48.726;9.248;2024-03-02T11:38:31;95632.03;;;27.59;29.74
44131;BME280;29792;48.726;9.248;2024-03-02T11:40:59;95634.06;;;25.92;32.59
44131;BME280;29792;48.726;9.248;2024-03-02T11:43:25;95622.28;;;24.77;34.76
44131;BME280;29792;48.726;9.248;2024-03-02T11:46:04;95622.78;;;23.75;35.47
44131;BME280;29792;48.726;9.248;2024-03-02T11:48:32;95613.13;;;22.97;36.73
44131;BME280;29792;48.726;9.248;2024-03-02T11:50:58;95611.28;;;22.29;37.77
44131;BME280;29792;48.726;9.248;2024-03-02T11:53:26;95596.22;;;21.61;38.12
44131;BME280;29792;48.726;9.248;2024-03-02T11:55:54;95600.09;;;21.05;39.86
44131;BME280;29792;48.726;9.248;2024-03-02T11:58:20;95604.03;;;20.66;41.16
44131;BME280;29792;48.726;9.248;2024-03-02T12:00:51;95594.44;;;20.30;41.26
44131;BME280;29792;48.726;9.248;2024-03-02T12:03:16;95591.78;;;20.00;42.21
44131;BME280;29792;48.726;9.248;2024-03-02T12:05:42;95588.66;;;19.73;42.47
44131;BME280;29792;48.726;9.248;2024-03-02T12:08:07;95580.09;;;19.48;43.96
44131;BME280;29792;48.726;9.248;2024-03-02T12:10:34;95577.41;;;19.30;44.99
44131;BME280;29792;48.726;9.248;2024-03-02T12:13:01;95577.31;;;19.18;44.42
44131;BME280;29792;48.726;9.248;2024-03-02T12:15:29;95576.97;;;19.08;45.08
44131;BME280;29792;48.726;9.248;2024-03-02T12:17:59;95574.38;;;19.08;45.47
44131;BME280;29792;48.726;9.248;2024-03-02T12:20:26;95569.25;;;19.01;45.60
44131;BME280;29792;48.726;9.248;2024-03-02T12:22:52;95573.09;;;18.92;45.56
44131;BME280;29792;48.726;9.248;2024-03-02T12:25:22;95570.81;;;18.78;45.75
44131;BME280;29792;48.726;9.248;2024-03-02T12:27:50;95559.88;;;18.69;45.13
44131;BME280;29792;48.726;9.248;2024-03-02T12:30:19;95563.28;;;18.70;46.07
44131;BME280;29792;48.726;9.248;2024-03-02T12:32:47;95552.13;;;18.62;46.12
44131;BME280;29792;48.726;9.248;2024-03-02T12:35:13;95548.31;;;18.65;46.77
44131;BME280;29792;48.726;9.248;2024-03-02T12:37:45;95551.16;;;18.63;46.14
44131;BME280;29792;48.726;9.248;2024-03-02T12:40:12;95545.31;;;18.68;47.34
44131;BME280;29792;48.726;9.248;2024-03-02T12:42:38;95544.28;;;18.76;46.40
44131;BME280;29792;48.726;9.248;2024-03-02T12:45:04;95542.06;;;18.79;46.66
44131;BME280;29792;48.726;9.248;2024-03-02T12:47:30;95538.03;;;18.83;47.50
44131;BME280;29792;48.726;9.248;2024-03-02T12:49:55;95534.22;;;18.86;47.78
44131;BME280;29792;48.726;9.248;2024-03-02T12:52:21;95534.16;;;18.92;46.28
44131;BME280;29792;48.726;9.248;2024-03-02T12:54:47;95529.19;;;18.91;46.27
44131;BME280;29792;48.726;9.248;2024-03-02T12:57:17;95539.31;;;18.99;45.65
44131;BME280;29792;48.726;9.248;2024-03-02T12:59:45;95538.38;;;19.18;46.96
44131;BME280;29792;48.726;9.248;2024-03-02T13:02:17;95546.72;;;19.45;47.22
44131;BME280;29792;48.726;9.248;2024-03-02T13:04:42;95533.09;;;19.93;46.75